Time;durP1;ratioP1;P1;durP2;ratioP2;P2;SDS_P1;SDS_P2;PMS_P1;PMS_P2;Temp;Humidity;BMP_temperature;BMP_pressure;BME280_temperature;BME280_humidity;BME280_pressure;Samples;Min_cycle;Max_cycle;Signal;HPM_P1;HPM_P2
2021/10/12 00:00:28;;;;;;;0.10;0.10;;;;;;;;;;4791301;29;20039;-93
2021/10/12 00:02:54;;;;;;;0.10;0.10;;;;;;;;;;4776025;29;20055;-94
2021/10/12 00:05:20;;;;;;;0.65;0.57;;;;;;;;;;4790756;29;20549;-91
2021/10/12 00:07:46;;;;;;;0.10;0.10;;;;;;;;;;4775675;29;20070;-91
2021/10/12 00:10:12;;;;;;;0.10;0.10;;;;;;;;;;4790780;29;20129;-92
2021/10/12 00:12:38;;;;;;;0.10;0.10;;;;;;;;;;4790769;29;20150;-93
2021/10/12 00:15:05;;;;;;;0.10;0.10;;;;;;;;;;4775821;29;20039;-92
2021/10/12 00:17:31;;;;;;;0.10;0.10;;;;;;;;;;4790633;29;20552;-92
2021/10/12 00:19:57;;;;;;;0.10;0.10;;;;;;;;;;4775626;29;20047;-92
2021/10/12 00:22:23;;;;;;;0.10;0.10;;;;;;;;;;4775926;29;20107;-94
2021/10/12 00:24:49;;;;;;;0.10;0.10;;;;;;;;;;4775950;29;20124;-94
2021/10/12 00:27:14;;;;;;;0.10;0.10;;;;;;;;;;4775840;29;20119;-91
2021/10/12 00:29:41;;;;;;;0.10;0.10;;;;;;;;;;4790527;29;20070;-93
2021/10/12 00:32:07;;;;;;;0.10;0.10;;;;;;;;;;4790583;29;20053;-92
2021/10/12 00:34:34;;;;;;;0.10;0.10;;;;;;;;;;4790498;29;20043;-93
2021/10/12 00:36:59;;;;;;;0.10;0.10;;;;;;;;;;4776223;29;20050;-94
2021/10/12 00:39:25;;;;;;;0.10;0.10;;;;;;;;;;4790944;29;20039;-95
2021/10/12 00:41:51;;;;;;;0.10;0.10;;;;;;;;;;4776239;29;20174;-93
2021/10/12 00:44:17;;;;;;;0.10;0.10;;;;;;;;;;4790653;29;20062;-94
2021/10/12 00:46:43;;;;;;;0.10;0.10;;;;;;;;;;4776297;29;20081;-91
2021/10/12 00:49:09;;;;;;;0.10;0.10;;;;;;;;;;4776423;29;20145;-93
2021/10/12 00:51:35;;;;;;;0.10;0.10;;;;;;;;;;4775693;29;20050;-91
2021/10/12 00:54:01;;;;;;;0.10;0.10;;;;;;;;;;4775456;29;20034;-92
2021/10/12 00:56:29;;;;;;;0.10;0.10;;;;;;;;;;4775807;29;20111;-92
2021/10/12 00:58:55;;;;;;;0.10;0.10;;;;;;;;;;4790467;29;20051;-93
2021/10/12 01:01:23;;;;;;;0.10;0.10;;;;;;;;;;4775586;29;20058;-93
2021/10/12 01:03:49;;;;;;;0.10;0.10;;;;;;;;;;4775625;29;20050;-92
2021/10/12 01:06:15;;;;;;;0.10;0.10;;;;;;;;;;4775408;29;20517;-93
2021/10/12 01:08:41;;;;;;;0.10;0.10;;;;;;;;;;4790361;29;20433;-95
2021/10/12 01:11:08;;;;;;;0.20;0.20;;;;;;;;;;4775300;29;20042;-95
2021/10/12 01:13:34;;;;;;;0.10;0.10;;;;;;;;;;4775141;29;20492;-94
2021/10/12 01:16:01;;;;;;;0.10;0.10;;;;;;;;;;4789865;29;20046;-94
2021/10/12 01:18:31;;;;;;;0.10;0.10;;;;;;;;;;4774654;29;20082;-94
2021/10/12 01:21:00;;;;;;;0.10;0.10;;;;;;;;;;4790135;29;20054;-93
2021/10/12 01:23:26;;;;;;;0.10;0.10;;;;;;;;;;4789761;29;20047;-93
2021/10/12 01:25:52;;;;;;;0.10;0.10;;;;;;;;;;4790297;29;20107;-95
2021/10/12 01:28:21;;;;;;;0.10;0.10;;;;;;;;;;4789750;29;20056;-93
2021/10/12 01:30:47;;;;;;;0.10;0.10;;;;;;;;;;4774781;29;20050;-92
2021/10/12 01:33:14;;;;;;;0.10;0.10;;;;;;;;;;4789599;29;20153;-94
2021/10/12 01:35:40;;;;;;;0.10;0.10;;;;;;;;;;4789905;29;20046;-94
2021/10/12 01:38:06;;;;;;;0.10;0.10;;;;;;;;;;4790032;29;20061;-94
2021/10/12 01:40:32;;;;;;;0.10;0.10;;;;;;;;;;4789911;29;20074;-96
2021/10/12 01:42:58;;;;;;;0.10;0.10;;;;;;;;;;4775329;29;20047;-94
2021/10/12 01:45:26;;;;;;;0.10;0.10;;;;;;;;;;4774610;29;20128;-95
2021/10/12 01:47:53;;;;;;;0.10;0.10;;;;;;;;;;4789944;29;20047;-94
2021/10/12 01:50:19;;;;;;;0.10;0.10;;;;;;;;;;4790106;29;20051;-92
2021/10/12 01:52:45;;;;;;;0.10;0.10;;;;;;;;;;4774584;29;20054;-91
2021/10/12 01:55:11;;;;;;;0.10;0.10;;;;;;;;;;4789221;29;20050;-91
2021/10/12 01:57:40;;;;;;;0.10;0.10;;;;;;;;;;4789222;29;20043;-92
2021/10/12 02:00:06;;;;;;;0.10;0.10;;;;;;;;;;4790150;29;20054;-93
2021/10/12 02:02:32;;;;;;;0.10;0.10;;;;;;;;;;4789879;29;20054;-94
2021/10/12 02:04:58;;;;;;;0.10;0.10;;;;;;;;;;4789569;29;20054;-94
2021/10/12 02:07:24;;;;;;;0.10;0.10;;;;;;;;;;4775182;29;20059;-92
2021/10/12 02:09:50;;;;;;;0.10;0.10;;;;;;;;;;4774546;29;20560;-94
2021/10/12 02:12:16;;;;;;;0.10;0.10;;;;;;;;;;4789702;29;20051;-94
2021/10/12 02:14:42;;;;;;;0.10;0.10;;;;;;;;;;4789783;29;20493;-92
2021/10/12 02:17:08;;;;;;;0.10;0.10;;;;;;;;;;4774953;29;20074;-92
2021/10/12 02:19:34;;;;;;;0.10;0.10;;;;;;;;;;4789574;29;20046;-93
2021/10/12 02:22:00;;;;;;;0.10;0.10;;;;;;;;;;4789763;29;20051;-92
2021/10/12 02:24:26;;;;;;;0.10;0.10;;;;;;;;;;4789393;29;20070;-92
2021/10/12 02:26:52;;;;;;;0.10;0.10;;;;;;;;;;4774159;29;20093;-94
2021/10/12 02:29:18;;;;;;;0.10;0.10;;;;;;;;;;4776241;29;20082;-95
2021/10/12 02:31:44;;;;;;;0.10;0.10;;;;;;;;;;4792810;29;20129;-94
2021/10/12 02:34:10;;;;;;;0.10;0.10;;;;;;;;;;4793018;29;20039;-93
2021/10/12 02:36:36;;;;;;;0.10;0.10;;;;;;;;;;4777657;29;20484;-92
2021/10/12 02:39:02;;;;;;;0.10;0.10;;;;;;;;;;4792640;29;20047;-94
2021/10/12 02:41:28;;;;;;;0.10;0.10;;;;;;;;;;4777655;29;20065;-93
2021/10/12 02:43:55;;;;;;;0.10;0.10;;;;;;;;;;4777419;29;20129;-93
2021/10/12 02:46:20;;;;;;;0.10;0.10;;;;;;;;;;4792968;29;20119;-94
2021/10/12 02:48:48;;;;;;;0.10;0.10;;;;;;;;;;4777589;29;20041;-93
2021/10/12 02:51:14;;;;;;;0.10;0.10;;;;;;;;;;4777792;29;20349;-92
2021/10/12 02:53:40;;;;;;;0.10;0.10;;;;;;;;;;4777573;29;20108;-91
2021/10/12 02:56:06;;;;;;;0.10;0.10;;;;;;;;;;4777603;29;20054;-93
2021/10/12 02:58:32;;;;;;;0.10;0.10;;;;;;;;;;4777782;29;20104;-91
2021/10/12 03:00:58;;;;;;;0.20;0.20;;;;;;;;;;4792584;29;20095;-92
2021/10/12 03:03:24;;;;;;;0.10;0.10;;;;;;;;;;4792418;29;20051;-93
2021/10/12 03:05:51;;;;;;;0.10;0.10;;;;;;;;;;4777453;29;20046;-93
2021/10/12 03:08:17;;;;;;;0.10;0.10;;;;;;;;;;4776929;29;20047;-93
2021/10/12 03:10:43;;;;;;;0.10;0.10;;;;;;;;;;4792223;29;20181;-92
2021/10/12 03:13:09;;;;;;;0.10;0.10;;;;;;;;;;4791974;29;20051;-92
2021/10/12 03:15:38;;;;;;;0.10;0.10;;;;;;;;;;4792067;29;20093;-92
2021/10/12 03:18:04;;;;;;;0.10;0.10;;;;;;;;;;4777168;29;20046;-93
2021/10/12 03:20:30;;;;;;;0.10;0.10;;;;;;;;;;4777517;29;20051;-93
2021/10/12 03:22:56;;;;;;;0.10;0.10;;;;;;;;;;4792280;29;20050;-94
2021/10/12 03:25:22;;;;;;;0.10;0.10;;;;;;;;;;4791969;29;20084;-93
2021/10/12 03:27:48;;;;;;;0.10;0.10;;;;;;;;;;4776975;29;20050;-92
2021/10/12 03:30:14;;;;;;;0.10;0.10;;;;;;;;;;4777013;29;20142;-93
2021/10/12 03:32:40;;;;;;;0.10;0.10;;;;;;;;;;4791943;29;20566;-93
2021/10/12 03:35:07;;;;;;;0.15;0.15;;;;;;;;;;4776476;29;20034;-92
2021/10/12 03:37:33;;;;;;;0.10;0.10;;;;;;;;;;4791979;29;20038;-92
2021/10/12 03:39:59;;;;;;;0.10;0.10;;;;;;;;;;4791113;29;20111;-93
2021/10/12 03:42:27;;;;;;;0.10;0.10;;;;;;;;;;4791030;29;20422;-93
2021/10/12 03:44:53;;;;;;;0.10;0.10;;;;;;;;;;4776465;29;20047;-92
2021/10/12 03:47:19;;;;;;;0.10;0.10;;;;;;;;;;4791377;29;20051;-93
2021/10/12 03:49:45;;;;;;;0.10;0.10;;;;;;;;;;4776671;29;20042;-93
2021/10/12 03:52:11;;;;;;;0.10;0.10;;;;;;;;;;4791067;29;20050;-94
2021/10/12 03:54:37;;;;;;;0.10;0.10;;;;;;;;;;4791395;29;20039;-94
2021/10/12 03:57:03;;;;;;;0.10;0.10;;;;;;;;;;4791659;29;20046;-92
2021/10/12 03:59:29;;;;;;;0.10;0.10;;;;;;;;;;4776362;29;20130;-95
2021/10/12 04:01:55;;;;;;;0.10;0.10;;;;;;;;;;4776488;29;20050;-92
2021/10/12 04:04:21;;;;;;;0.10;0.10;;;;;;;;;;4791005;29;20057;-93
2021/10/12 04:06:47;;;;;;;0.10;0.10;;;;;;;;;;4791032;29;20046;-93
2021/10/12 04:09:13;;;;;;;0.10;0.10;;;;;;;;;;4791042;29;20160;-93
2021/10/12 04:11:39;;;;;;;0.10;0.10;;;;;;;;;;4776485;29;20058;-93
2021/10/12 04:14:05;;;;;;;0.10;0.10;;;;;;;;;;4776063;29;20046;-94
2021/10/12 04:16:32;;;;;;;0.10;0.10;;;;;;;;;;4790821;29;20046;-94
2021/10/12 04:18:58;;;;;;;0.10;0.10;;;;;;;;;;4776064;29;20074;-94
2021/10/12 04:21:31;;;;;;;0.10;0.10;;;;;;;;;;4790648;29;20076;-93
2021/10/12 04:23:58;;;;;;;0.10;0.10;;;;;;;;;;4790685;29;20065;-93
2021/10/12 04:26:26;;;;;;;0.10;0.10;;;;;;;;;;4775601;29;20137;-94
2021/10/12 04:28:55;;;;;;;0.10;0.10;;;;;;;;;;4776310;29;20137;-93
2021/10/12 04:31:21;;;;;;;0.10;0.10;;;;;;;;;;4776105;29;20090;-94
2021/10/12 04:33:47;;;;;;;0.10;0.10;;;;;;;;;;4790688;29;20122;-93
2021/10/12 04:36:13;;;;;;;0.10;0.10;;;;;;;;;;4790760;29;20042;-93
2021/10/12 04:38:39;;;;;;;0.10;0.10;;;;;;;;;;4776906;29;20046;-96
2021/10/12 04:41:06;;;;;;;0.10;0.10;;;;;;;;;;4775988;29;20054;-92
2021/10/12 04:43:32;;;;;;;0.10;0.10;;;;;;;;;;4775709;29;20553;-93
2021/10/12 04:45:59;;;;;;;0.10;0.10;;;;;;;;;;4775738;29;20050;-94
2021/10/12 04:48:25;;;;;;;0.10;0.10;;;;;;;;;;4775724;29;20050;-93
2021/10/12 04:50:51;;;;;;;0.10;0.10;;;;;;;;;;4790592;29;20069;-94
2021/10/12 04:53:17;;;;;;;0.10;0.10;;;;;;;;;;4790130;29;20055;-93
2021/10/12 04:55:43;;;;;;;0.57;0.20;;;;;;;;;;4790175;29;20038;-92
2021/10/12 04:58:09;;;;;;;0.10;0.10;;;;;;;;;;4790406;29;20066;-92
2021/10/12 05:00:35;;;;;;;0.10;0.10;;;;;;;;;;4775698;29;20054;-92
2021/10/12 05:03:01;;;;;;;0.10;0.10;;;;;;;;;;4790079;29;20104;-93
2021/10/12 05:05:27;;;;;;;0.10;0.10;;;;;;;;;;4775367;29;20121;-92
2021/10/12 05:07:53;;;;;;;0.10;0.10;;;;;;;;;;4790382;29;20221;-92
2021/10/12 05:10:19;;;;;;;0.20;0.20;;;;;;;;;;4790188;29;20562;-93
2021/10/12 05:12:45;;;;;;;0.10;0.10;;;;;;;;;;4790228;29;20047;-93
2021/10/12 05:15:18;;;;;;;0.10;0.10;;;;;;;;;;4775463;29;20088;-93
2021/10/12 05:17:47;;;;;;;0.10;0.10;;;;;;;;;;4775225;29;20043;-91
2021/10/12 05:20:13;;;;;;;0.10;0.10;;;;;;;;;;4775047;29;20557;-92
2021/10/12 05:22:39;;;;;;;0.10;0.10;;;;;;;;;;4790074;29;20050;-93
2021/10/12 05:25:05;;;;;;;0.10;0.10;;;;;;;;;;4775180;29;20059;-93
2021/10/12 05:27:32;;;;;;;0.10;0.10;;;;;;;;;;4775862;29;20119;-93
2021/10/12 05:29:58;;;;;;;0.10;0.10;;;;;;;;;;4789727;29;20049;-94
2021/10/12 05:32:26;;;;;;;0.05;0.05;;;;;;;;;;4789830;29;20046;-94
2021/10/12 05:34:58;;;;;;;0.10;0.10;;;;;;;;;;4775109;29;20061;-92
2021/10/12 05:37:33;;;;;;;0.10;0.10;;;;;;;;;;4789702;29;20158;-93
2021/10/12 05:39:59;;;;;;;0.10;0.10;;;;;;;;;;4774939;29;20046;-95
2021/10/12 05:42:25;;;;;;;0.10;0.10;;;;;;;;;;4775304;29;20054;-94
2021/10/12 05:44:51;;;;;;;0.10;0.10;;;;;;;;;;4774854;29;20657;-94
2021/10/12 05:47:17;;;;;;;0.10;0.10;;;;;;;;;;4774675;29;20094;-92
2021/10/12 05:49:43;;;;;;;0.10;0.10;;;;;;;;;;4790010;29;20055;-92
2021/10/12 05:52:13;;;;;;;0.10;0.10;;;;;;;;;;4774622;29;20051;-94
2021/10/12 05:54:45;;;;;;;0.10;0.10;;;;;;;;;;4774888;29;20043;-92
2021/10/12 05:57:19;;;;;;;0.10;0.10;;;;;;;;;;4774639;29;20042;-94
2021/10/12 05:59:48;;;;;;;0.10;0.10;;;;;;;;;;4775203;29;20057;-93
2021/10/12 06:02:14;;;;;;;0.10;0.10;;;;;;;;;;4789717;29;20042;-93
2021/10/12 06:04:40;;;;;;;0.10;0.10;;;;;;;;;;4791226;29;20054;-91
2021/10/12 06:07:06;;;;;;;0.10;0.10;;;;;;;;;;4778724;29;20070;-92
2021/10/12 06:09:32;;;;;;;0.10;0.10;;;;;;;;;;4777983;29;20046;-91
2021/10/12 06:12:06;;;;;;;0.10;0.10;;;;;;;;;;4792987;29;20216;-94
2021/10/12 06:14:32;;;;;;;0.10;0.10;;;;;;;;;;4778111;29;20038;-93
2021/10/12 06:16:59;;;;;;;0.10;0.10;;;;;;;;;;4793234;29;20050;-93
2021/10/12 06:19:24;;;;;;;0.10;0.10;;;;;;;;;;4778277;29;20043;-92
2021/10/12 06:21:50;;;;;;;0.10;0.10;;;;;;;;;;4793195;29;20066;-93
2021/10/12 06:24:16;;;;;;;0.10;0.10;;;;;;;;;;4792582;29;20445;-93
2021/10/12 06:26:42;;;;;;;0.10;0.10;;;;;;;;;;4778787;29;20050;-91
2021/10/12 06:29:08;;;;;;;0.10;0.10;;;;;;;;;;4792998;29;20061;-91
2021/10/12 06:31:34;;;;;;;0.10;0.10;;;;;;;;;;4777489;29;20500;-90
2021/10/12 06:34:00;;;;;;;0.10;0.10;;;;;;;;;;4791752;29;20038;-92
2021/10/12 06:36:31;;;;;;;0.10;0.10;;;;;;;;;;4792234;29;20043;-89
2021/10/12 06:39:00;;;;;;;0.10;0.10;;;;;;;;;;4795253;29;20143;-94
2021/10/12 06:41:44;;;;;;;0.10;0.10;;;;;;;;;;4789263;29;20126;-92
2021/10/12 06:44:10;;;;;;;0.10;0.10;;;;;;;;;;4787205;29;20115;-90
2021/10/12 06:46:36;;;;;;;0.10;0.10;;;;;;;;;;4785825;29;20054;-89
2021/10/12 06:49:05;;;;;;;0.10;0.10;;;;;;;;;;4811115;29;20193;-93
2021/10/12 06:51:31;;;;;;;0.10;0.10;;;;;;;;;;4798853;29;20056;-87
2021/10/12 06:53:57;;;;;;;0.10;0.10;;;;;;;;;;4788773;29;20134;-89
2021/10/12 06:56:25;;;;;;;0.10;0.10;;;;;;;;;;4778591;29;20086;-92
2021/10/12 06:58:51;;;;;;;0.52;0.30;;;;;;;;;;4778194;29;20051;-88
2021/10/12 07:01:21;;;;;;;0.10;0.10;;;;;;;;;;4791636;29;20051;-93
2021/10/12 07:04:13;;;;;;;0.10;0.10;;;;;;;;;;4792313;29;20058;-94
2021/10/12 07:06:47;;;;;;;0.10;0.10;;;;;;;;;;4791909;29;20174;-93
2021/10/12 07:09:16;;;;;;;0.10;0.10;;;;;;;;;;4792846;29;20051;-93
2021/10/12 07:11:42;;;;;;;0.10;0.10;;;;;;;;;;4777407;29;20098;-93
2021/10/12 07:14:08;;;;;;;0.10;0.10;;;;;;;;;;4792135;29;20206;-93
2021/10/12 07:16:38;;;;;;;0.10;0.10;;;;;;;;;;4777617;29;20503;-95
2021/10/12 07:19:04;;;;;;;0.10;0.10;;;;;;;;;;4778985;29;20035;-92
2021/10/12 07:21:30;;;;;;;0.10;0.10;;;;;;;;;;4792400;29;20039;-90
2021/10/12 07:23:56;;;;;;;0.10;0.10;;;;;;;;;;4791904;29;20059;-92
2021/10/12 07:26:23;;;;;;;0.10;0.10;;;;;;;;;;4777384;29;20449;-93
2021/10/12 07:28:49;;;;;;;0.10;0.10;;;;;;;;;;4777247;29;20047;-92
2021/10/12 07:31:15;;;;;;;0.10;0.10;;;;;;;;;;4792476;29;20078;-92
2021/10/12 07:33:41;;;;;;;0.10;0.10;;;;;;;;;;4777984;29;20086;-94
2021/10/12 07:36:07;;;;;;;0.10;0.10;;;;;;;;;;4776553;29;20077;-90
2021/10/12 07:38:33;;;;;;;0.10;0.10;;;;;;;;;;4776662;29;20098;-92
2021/10/12 07:40:59;;;;;;;0.10;0.10;;;;;;;;;;4792309;29;20444;-91
2021/10/12 07:43:25;;;;;;;0.10;0.10;;;;;;;;;;4777343;29;20108;-94
2021/10/12 07:45:54;;;;;;;0.10;0.10;;;;;;;;;;4778141;29;20162;-94
2021/10/12 07:48:23;;;;;;;0.10;0.10;;;;;;;;;;4777000;29;20141;-94
2021/10/12 07:50:50;;;;;;;0.10;0.10;;;;;;;;;;4778005;29;20062;-91
2021/10/12 07:53:29;;;;;;;0.10;0.10;;;;;;;;;;4797649;29;20070;-93
2021/10/12 07:56:02;;;;;;;0.10;0.10;;;;;;;;;;4812078;29;20095;-95
2021/10/12 07:58:46;;;;;;;0.10;0.10;;;;;;;;;;4761054;30;20039;-93
2021/10/12 08:01:17;;;;;;;0.30;0.30;;;;;;;;;;4767465;30;20080;-92
2021/10/12 08:03:46;;;;;;;0.10;0.10;;;;;;;;;;4777776;30;20450;-93
2021/10/12 08:06:12;;;;;;;0.10;0.10;;;;;;;;;;4761656;30;20047;-95
2021/10/12 08:08:38;;;;;;;0.10;0.10;;;;;;;;;;4764067;30;20047;-95
2021/10/12 08:11:04;;;;;;;0.10;0.10;;;;;;;;;;4763089;30;20047;-93
2021/10/12 08:13:33;;;;;;;0.10;0.10;;;;;;;;;;4761169;30;20075;-93
2021/10/12 08:16:07;;;;;;;0.10;0.10;;;;;;;;;;4760740;30;20051;-93
2021/10/12 08:18:33;;;;;;;0.10;0.10;;;;;;;;;;4764587;30;20055;-94
2021/10/12 08:21:00;;;;;;;0.10;0.10;;;;;;;;;;4778891;30;20053;-94
2021/10/12 08:23:39;;;;;;;0.10;0.10;;;;;;;;;;4763411;29;20112;-93
2021/10/12 08:26:14;;;;;;;0.10;0.10;;;;;;;;;;4862991;24;20126;-94
2021/10/12 08:28:59;;;;;;;0.10;0.10;;;;;;;;;;4855475;24;20063;-91
2021/10/12 08:31:25;;;;;;;0.10;0.10;;;;;;;;;;4806089;29;20059;-91
2021/10/12 08:33:51;;;;;;;0.10;0.10;;;;;;;;;;4776844;29;20349;-93
2021/10/12 08:36:17;;;;;;;0.10;0.10;;;;;;;;;;4777102;29;20042;-92
2021/10/12 08:38:43;;;;;;;0.10;0.10;;;;;;;;;;4776329;29;20043;-92
2021/10/12 08:41:12;;;;;;;0.10;0.10;;;;;;;;;;4790426;29;20047;-93
2021/10/12 08:43:38;;;;;;;0.10;0.10;;;;;;;;;;4820891;29;20058;-94
2021/10/12 08:46:05;;;;;;;0.10;0.10;;;;;;;;;;4790224;29;20058;-91
2021/10/12 08:48:32;;;;;;;0.10;0.10;;;;;;;;;;4776749;29;20130;-92
2021/10/12 08:50:59;;;;;;;0.10;0.10;;;;;;;;;;4790630;29;20464;-93
2021/10/12 08:53:27;;;;;;;0.10;0.10;;;;;;;;;;4790409;29;20070;-92
2021/10/12 08:55:53;;;;;;;0.20;0.20;;;;;;;;;;4790144;29;20050;-90
2021/10/12 08:58:19;;;;;;;0.10;0.10;;;;;;;;;;4775143;29;20050;-91
2021/10/12 09:00:45;;;;;;;0.10;0.10;;;;;;;;;;4790009;29;20050;-90
2021/10/12 09:05:52;;;;;;;0.10;0.10;;;;;;;;;;4805002;29;20062;-90
2021/10/12 09:08:18;;;;;;;;;;;;;;;;;;4820626;29;20388;-91
2021/10/12 09:10:44;;;;;;;0.10;0.10;;;;;;;;;;4804843;29;19921;-91
2021/10/12 09:13:12;;;;;;;0.10;0.10;;;;;;;;;;4820049;29;20047;-91
2021/10/12 09:15:38;;;;;;;0.20;0.20;;;;;;;;;;4789433;29;20095;-90
2021/10/12 09:18:04;;;;;;;0.10;0.10;;;;;;;;;;4789389;29;20039;-90
2021/10/12 09:20:31;;;;;;;0.10;0.10;;;;;;;;;;4789933;29;20606;-90
2021/10/12 09:23:04;;;;;;;0.10;0.10;;;;;;;;;;4789200;29;20407;-89
2021/10/12 09:25:37;;;;;;;0.10;0.10;;;;;;;;;;4789618;29;20053;-89
2021/10/12 09:28:04;;;;;;;0.10;0.10;;;;;;;;;;4789220;29;20059;-90
2021/10/12 09:30:34;;;;;;;0.10;0.10;;;;;;;;;;4789510;29;20111;-89
2021/10/12 09:33:00;;;;;;;0.10;0.10;;;;;;;;;;4789397;29;20042;-91
2021/10/12 09:35:29;;;;;;;0.10;0.10;;;;;;;;;;4789498;29;20057;-90
2021/10/12 09:38:05;;;;;;;0.10;0.10;;;;;;;;;;4789530;29;20043;-91
2021/10/12 09:40:31;;;;;;;0.10;0.10;;;;;;;;;;4789697;29;20046;-89
2021/10/12 09:42:57;;;;;;;0.20;0.20;;;;;;;;;;4789285;29;20053;-91
2021/10/12 09:45:40;;;;;;;0.10;0.10;;;;;;;;;;4819357;29;20078;-90
2021/10/12 09:48:25;;;;;;;0.10;0.10;;;;;;;;;;4774484;29;20042;-95
2021/10/12 09:50:54;;;;;;;0.10;0.10;;;;;;;;;;4821041;29;20051;-92
2021/10/12 09:53:32;;;;;;;0.10;0.10;;;;;;;;;;4819617;29;20051;-90
2021/10/12 09:55:58;;;;;;;0.10;0.10;;;;;;;;;;4779383;29;20183;-90
2021/10/12 09:58:24;;;;;;;0.10;0.10;;;;;;;;;;4836676;29;20074;-90
2021/10/12 10:00:50;;;;;;;0.10;0.10;;;;;;;;;;4792396;29;20049;-90
2021/10/12 10:03:16;;;;;;;0.10;0.10;;;;;;;;;;4792816;29;20543;-92
2021/10/12 10:05:42;;;;;;;0.10;0.10;;;;;;;;;;4792566;29;20057;-90
2021/10/12 10:08:08;;;;;;;0.10;0.10;;;;;;;;;;4809260;29;20058;-88
2021/10/12 10:10:34;;;;;;;0.10;0.10;;;;;;;;;;4839372;29;20054;-89
2021/10/12 10:13:00;;;;;;;0.10;0.10;;;;;;;;;;4837103;29;20050;-88
2021/10/12 10:15:26;;;;;;;0.10;0.10;;;;;;;;;;4795619;29;20085;-93
2021/10/12 10:17:52;;;;;;;0.10;0.10;;;;;;;;;;4808488;29;20043;-93
2021/10/12 10:20:18;;;;;;;0.10;0.10;;;;;;;;;;4808136;29;20082;-95
2021/10/12 10:22:49;;;;;;;0.10;0.10;;;;;;;;;;4807235;29;20053;-89
2021/10/12 10:25:25;;;;;;;0.20;0.20;;;;;;;;;;4792105;29;20058;-90
2021/10/12 10:27:51;;;;;;;0.10;0.10;;;;;;;;;;4825505;29;20137;-92
2021/10/12 10:30:24;;;;;;;0.10;0.10;;;;;;;;;;4807763;29;20452;-92
2021/10/12 10:32:54;;;;;;;0.10;0.10;;;;;;;;;;4791747;29;20099;-94
2021/10/12 10:35:32;;;;;;;0.10;0.10;;;;;;;;;;4792558;29;20535;-92
2021/10/12 10:38:21;;;;;;;0.10;0.10;;;;;;;;;;4807559;29;20046;-92
2021/10/12 10:40:51;;;;;;;0.10;0.10;;;;;;;;;;4822035;29;20503;-91
2021/10/12 10:43:19;;;;;;;0.10;0.10;;;;;;;;;;4792277;29;20244;-94
2021/10/12 10:45:49;;;;;;;0.10;0.10;;;;;;;;;;4808266;29;20079;-89
2021/10/12 10:48:17;;;;;;;0.10;0.10;;;;;;;;;;4821805;29;20054;-89
2021/10/12 10:50:43;;;;;;;0.28;0.28;;;;;;;;;;4793394;29;20345;-88
2021/10/12 10:53:10;;;;;;;0.10;0.10;;;;;;;;;;4809303;29;20063;-89
2021/10/12 10:55:37;;;;;;;0.10;0.10;;;;;;;;;;4809556;29;20046;-89
2021/10/12 10:58:06;;;;;;;0.10;0.10;;;;;;;;;;4794571;29;20078;-89
2021/10/12 11:00:41;;;;;;;0.10;0.10;;;;;;;;;;4824417;29;20050;-89
2021/10/12 11:03:07;;;;;;;1.45;0.40;;;;;;;;;;4824363;29;20053;-88
2021/10/12 11:05:36;;;;;;;0.10;0.10;;;;;;;;;;4795580;29;20225;-89
2021/10/12 11:08:19;;;;;;;0.10;0.10;;;;;;;;;;4824278;29;20047;-89
2021/10/12 11:11:07;;;;;;;0.10;0.10;;;;;;;;;;4809584;29;20046;-89
2021/10/12 11:13:37;;;;;;;0.10;0.10;;;;;;;;;;4839242;29;20058;-89
2021/10/12 11:16:04;;;;;;;0.10;0.10;;;;;;;;;;4808983;29;20085;-89
2021/10/12 11:18:30;;;;;;;0.10;0.10;;;;;;;;;;4823940;29;20435;-89
2021/10/12 11:20:57;;;;;;;0.10;0.10;;;;;;;;;;4808976;29;20507;-89
2021/10/12 11:23:26;;;;;;;0.10;0.10;;;;;;;;;;4809319;29;20046;-88
2021/10/12 11:25:56;;;;;;;0.13;0.13;;;;;;;;;;4823933;29;20103;-88
2021/10/12 11:28:23;;;;;;;0.10;0.10;;;;;;;;;;4808952;29;20158;-88
2021/10/12 11:30:49;;;;;;;0.10;0.10;;;;;;;;;;4808933;29;20061;-89
2021/10/12 11:33:15;;;;;;;0.85;0.38;;;;;;;;;;4808768;29;20089;-88
2021/10/12 11:35:42;;;;;;;0.10;0.10;;;;;;;;;;4838847;29;20073;-89
2021/10/12 11:38:08;;;;;;;0.10;0.10;;;;;;;;;;4793892;29;20043;-88
2021/10/12 11:40:35;;;;;;;0.10;0.10;;;;;;;;;;4838802;29;20115;-89
2021/10/12 11:43:03;;;;;;;0.10;0.10;;;;;;;;;;4808344;29;20050;-89
2021/10/12 11:45:30;;;;;;;0.20;0.20;;;;;;;;;;4793652;29;20058;-88
2021/10/12 11:47:56;;;;;;;0.10;0.10;;;;;;;;;;4838763;29;20046;-88
2021/10/12 11:50:22;;;;;;;0.10;0.10;;;;;;;;;;4808311;29;20106;-88
2021/10/12 11:52:49;;;;;;;0.10;0.10;;;;;;;;;;4808368;29;20062;-88
2021/10/12 11:55:15;;;;;;;0.13;0.13;;;;;;;;;;4808246;29;20174;-88
2021/10/12 11:57:44;;;;;;;0.10;0.10;;;;;;;;;;4808185;29;20436;-88
2021/10/12 12:00:11;;;;;;;0.10;0.10;;;;;;;;;;4793470;29;20074;-88
2021/10/12 12:02:38;;;;;;;0.52;0.25;;;;;;;;;;4807115;29;20050;-88
2021/10/12 12:05:04;;;;;;;0.10;0.10;;;;;;;;;;4838351;29;20050;-88
2021/10/12 12:07:31;;;;;;;0.10;0.10;;;;;;;;;;4838236;29;20190;-88
2021/10/12 12:09:57;;;;;;;0.10;0.10;;;;;;;;;;4793068;29;20053;-88
2021/10/12 12:12:23;;;;;;;1.65;0.20;;;;;;;;;;4792649;29;20050;-88
2021/10/12 12:14:50;;;;;;;0.10;0.10;;;;;;;;;;4808007;29;20121;-88
2021/10/12 12:17:18;;;;;;;0.10;0.10;;;;;;;;;;4807748;29;20082;-88
2021/10/12 12:19:44;;;;;;;0.10;0.10;;;;;;;;;;4792862;29;20046;-88
2021/10/12 12:22:17;;;;;;;0.10;0.10;;;;;;;;;;4807775;29;20065;-88
2021/10/12 12:24:53;;;;;;;0.20;0.20;;;;;;;;;;4807810;29;20146;-89
2021/10/12 12:27:19;;;;;;;0.10;0.10;;;;;;;;;;4794478;29;20091;-88
2021/10/12 12:29:45;;;;;;;0.10;0.10;;;;;;;;;;4796252;29;20054;-89
2021/10/12 12:32:14;;;;;;;0.20;0.20;;;;;;;;;;4810931;29;20046;-89
2021/10/12 12:34:41;;;;;;;0.10;0.10;;;;;;;;;;4810908;29;20045;-89
2021/10/12 12:37:07;;;;;;;0.10;0.10;;;;;;;;;;4811023;29;20050;-89
2021/10/12 12:39:33;;;;;;;0.10;0.10;;;;;;;;;;4795755;29;20045;-88
2021/10/12 12:41:59;;;;;;;0.10;0.10;;;;;;;;;;4825879;29;20046;-89
2021/10/12 12:44:25;;;;;;;0.10;0.10;;;;;;;;;;4810582;29;20506;-89
2021/10/12 12:46:55;;;;;;;0.10;0.10;;;;;;;;;;4810691;29;20050;-89
2021/10/12 12:49:23;;;;;;;0.10;0.10;;;;;;;;;;4840882;29;20054;-88
2021/10/12 12:51:49;;;;;;;0.10;0.10;;;;;;;;;;4810624;29;20049;-88
2021/10/12 12:54:34;;;;;;;0.10;0.10;;;;;;;;;;4811820;29;20495;-88
2021/10/12 12:57:26;;;;;;;0.10;0.10;;;;;;;;;;4842957;29;20046;-88
2021/10/12 13:00:01;;;;;;;0.10;0.10;;;;;;;;;;4825518;29;20050;-88
2021/10/12 13:02:27;;;;;;;0.10;0.10;;;;;;;;;;4810204;29;20098;-87
2021/10/12 13:04:52;;;;;;;0.10;0.10;;;;;;;;;;4833771;29;20044;-87
2021/10/12 13:07:18;;;;;;;0.10;0.10;;;;;;;;;;4832755;29;20046;-88
2021/10/12 13:09:51;;;;;;;0.10;0.10;;;;;;;;;;4812275;29;20084;-89
2021/10/12 13:12:23;;;;;;;0.10;0.10;;;;;;;;;;4796057;29;20049;-88
2021/10/12 13:14:50;;;;;;;0.10;0.10;;;;;;;;;;4809983;29;20046;-89
2021/10/12 13:17:19;;;;;;;0.10;0.10;;;;;;;;;;4810498;29;20042;-88
2021/10/12 13:19:45;;;;;;;0.10;0.10;;;;;;;;;;4795537;29;20033;-89
2021/10/12 13:22:11;;;;;;;0.10;0.10;;;;;;;;;;4809951;29;20045;-88
2021/10/12 13:24:37;;;;;;;0.20;0.20;;;;;;;;;;4825132;29;20563;-88
2021/10/12 13:27:03;;;;;;;0.20;0.20;;;;;;;;;;4810125;29;20459;-90
2021/10/12 13:29:29;;;;;;;0.10;0.10;;;;;;;;;;4825260;29;20070;-88
2021/10/12 13:31:59;;;;;;;0.10;0.10;;;;;;;;;;4795069;29;20363;-88
2021/10/12 13:34:25;;;;;;;0.40;0.17;;;;;;;;;;4795761;29;20046;-89
2021/10/12 13:36:51;;;;;;;0.10;0.10;;;;;;;;;;4795076;29;20141;-88
2021/10/12 13:39:17;;;;;;;0.10;0.10;;;;;;;;;;4795176;29;20054;-88
2021/10/12 13:41:43;;;;;;;0.10;0.10;;;;;;;;;;4809659;29;20197;-88
2021/10/12 13:44:09;;;;;;;0.10;0.10;;;;;;;;;;4809840;29;20046;-88
2021/10/12 13:46:35;;;;;;;0.10;0.10;;;;;;;;;;4809828;29;20129;-89
2021/10/12 13:49:01;;;;;;;0.10;0.10;;;;;;;;;;4795055;29;20129;-89
2021/10/12 13:51:27;;;;;;;0.10;0.10;;;;;;;;;;4794979;29;20179;-88
2021/10/12 13:53:53;;;;;;;0.10;0.10;;;;;;;;;;4794901;29;20459;-88
2021/10/12 13:56:19;;;;;;;0.10;0.10;;;;;;;;;;4794664;29;20084;-88
2021/10/12 13:58:45;;;;;;;0.10;0.10;;;;;;;;;;4794558;29;20041;-88
2021/10/12 14:01:11;;;;;;;0.10;0.10;;;;;;;;;;4810120;29;20041;-88
2021/10/12 14:03:37;;;;;;;0.10;0.10;;;;;;;;;;4809611;29;20050;-89
2021/10/12 14:06:03;;;;;;;0.10;0.10;;;;;;;;;;4810198;29;20120;-88
2021/10/12 14:08:29;;;;;;;0.80;0.80;;;;;;;;;;4824842;29;20054;-88
2021/10/12 14:10:57;;;;;;;0.10;0.10;;;;;;;;;;4810103;29;20042;-87
2021/10/12 14:13:28;;;;;;;0.10;0.10;;;;;;;;;;4824660;29;20106;-88
2021/10/12 14:15:54;;;;;;;0.10;0.10;;;;;;;;;;4794745;29;20045;-88
2021/10/12 14:18:20;;;;;;;0.10;0.10;;;;;;;;;;4809758;29;20077;-88
2021/10/12 14:20:49;;;;;;;0.28;0.15;;;;;;;;;;4839901;29;20073;-88
2021/10/12 14:23:15;;;;;;;0.10;0.10;;;;;;;;;;4809841;29;20057;-88
2021/10/12 14:25:41;;;;;;;0.10;0.10;;;;;;;;;;4825880;29;20516;-88
2021/10/12 14:28:07;;;;;;;0.10;0.10;;;;;;;;;;4812903;29;20057;-88
2021/10/12 14:30:33;;;;;;;0.10;0.10;;;;;;;;;;4813289;29;20090;-88
2021/10/12 14:32:59;;;;;;;0.13;0.13;;;;;;;;;;4813036;29;20057;-88
2021/10/12 14:35:25;;;;;;;0.10;0.10;;;;;;;;;;4827703;29;20042;-88
2021/10/12 14:37:51;;;;;;;0.10;0.10;;;;;;;;;;4812931;29;20041;-88
2021/10/12 14:40:17;;;;;;;0.20;0.20;;;;;;;;;;4812560;29;20502;-89
2021/10/12 14:42:43;;;;;;;0.10;0.10;;;;;;;;;;4813226;29;20133;-88
2021/10/12 14:45:09;;;;;;;0.10;0.10;;;;;;;;;;4812899;29;20049;-88
2021/10/12 14:47:35;;;;;;;0.10;0.10;;;;;;;;;;4828251;29;20142;-88